GEC weather

Lefkoniko Airport
Ge├žitkale, Famagusta District, Cyprus

Public forecast

Using degrees Celsius for public forecast. Weather courtesy of forecast.io.

METAR (pilot weather report)

Closest report is Ercan International Airport, 12.2 nm (22.6 km) WSW. Retrieved 2019/06/20 08:20 UTC (7 minutes ago):

LCEN 200820Z 13003KT 9999 SCT025 31/18 Q1007 NOSIG

TAF (pilot weather forecast)

Closest forecast is Ercan International Airport, 12.2 nm (22.6 km) WSW. Retrieved 2019/06/20 06:00 UTC (2 hours ago):

TAF LCEN 200440Z 2006/2106 22012KT 9999 FEW025 TEMPO 2009/2012 VRB02KT -SHRA BKN025 TEMPO 2012/2015 28015G25KT 5000 TSRA FEW020CB BKN025 BECMG 2018/2021 28015KT FEW025